createdAt,value
2022-11-24T00:01:21.087Z,3.97
2022-11-24T00:03:54.985Z,3.08
2022-11-24T00:06:21.836Z,4.20
2022-11-24T00:08:48.644Z,3.65
2022-11-24T00:11:18.151Z,3.17
2022-11-24T00:13:45.256Z,3.93
2022-11-24T00:16:15.737Z,3.35
2022-11-24T00:18:45.270Z,2.88
2022-11-24T00:21:12.639Z,3.13
2022-11-24T00:23:39.860Z,3.13
2022-11-24T00:26:09.578Z,3.50
2022-11-24T00:28:39.092Z,3.13
2022-11-24T00:31:19.618Z,2.70
2022-11-24T00:33:48.410Z,2.63
2022-11-24T00:36:16.511Z,3.65
2022-11-24T00:38:44.310Z,3.70
2022-11-24T00:41:10.981Z,3.65
2022-11-24T00:43:37.663Z,3.33
2022-11-24T00:46:04.734Z,3.40
2022-11-24T00:48:32.195Z,4.05
2022-11-24T00:51:01.309Z,3.92
2022-11-24T00:53:28.264Z,3.30
2022-11-24T00:55:55.604Z,4.32
2022-11-24T00:58:23.750Z,3.78
2022-11-24T01:00:51.075Z,3.80
2022-11-24T01:03:20.988Z,4.05
2022-11-24T01:05:47.895Z,4.25
2022-11-24T01:08:14.830Z,3.78
2022-11-24T01:10:41.491Z,3.25
2022-11-24T01:13:08.145Z,4.30
2022-11-24T01:15:35.976Z,4.10
2022-11-24T01:18:03.502Z,3.42
2022-11-24T01:20:30.973Z,3.88
2022-11-24T01:22:57.749Z,4.05
2022-11-24T01:25:24.907Z,3.03
2022-11-24T01:27:51.569Z,3.40
2022-11-24T01:30:18.427Z,3.75
2022-11-24T01:32:46.095Z,3.22
2022-11-24T01:35:12.785Z,3.38
2022-11-24T01:37:39.467Z,2.85
2022-11-24T01:40:10.085Z,4.30
2022-11-24T01:42:48.863Z,2.95
2022-11-24T01:45:41.042Z,3.50
2022-11-24T01:48:30.656Z,3.13
2022-11-24T01:51:10.239Z,3.20
2022-11-24T01:53:38.238Z,3.30
2022-11-24T01:56:05.837Z,2.90
2022-11-24T01:58:34.517Z,3.13
2022-11-24T02:01:01.323Z,2.78
2022-11-24T02:03:33.793Z,2.35
2022-11-24T02:06:13.162Z,3.20
2022-11-24T02:08:54.953Z,2.50
2022-11-24T02:11:24.028Z,2.63
2022-11-24T02:13:53.225Z,2.72
2022-11-24T02:16:20.036Z,2.75
2022-11-24T02:18:47.109Z,3.20
2022-11-24T02:21:16.270Z,3.10
2022-11-24T02:23:55.738Z,2.70
2022-11-24T02:26:41.906Z,3.22
2022-11-24T02:29:11.734Z,2.50
2022-11-24T02:31:45.166Z,2.75
2022-11-24T02:34:11.876Z,2.40
2022-11-24T02:36:39.915Z,2.95
2022-11-24T02:39:15.366Z,2.70
2022-11-24T02:41:46.169Z,2.80
2022-11-24T02:44:15.827Z,2.78
2022-11-24T02:46:42.642Z,2.72
2022-11-24T02:49:09.375Z,2.85
2022-11-24T02:51:36.157Z,2.58
2022-11-24T02:54:02.802Z,2.70
2022-11-24T02:56:29.548Z,2.53
2022-11-24T02:58:56.284Z,2.42
2022-11-24T03:01:22.994Z,2.78
2022-11-24T03:03:49.808Z,2.40
2022-11-24T03:06:16.500Z,3.00
2022-11-24T03:08:44.101Z,2.42
2022-11-24T03:11:10.774Z,2.80
2022-11-24T03:13:37.444Z,3.25
2022-11-24T03:16:07.568Z,3.40
2022-11-24T03:18:34.267Z,3.42
2022-11-24T03:21:01.015Z,2.72
2022-11-24T03:23:27.732Z,3.53
2022-11-24T03:25:55.027Z,2.95
2022-11-24T03:28:21.750Z,2.55
2022-11-24T03:30:50.016Z,2.97
2022-11-24T03:33:16.756Z,2.70
2022-11-24T03:35:43.490Z,2.70
2022-11-24T03:38:10.133Z,3.15
2022-11-24T03:40:36.780Z,3.05
2022-11-24T03:43:03.485Z,3.03
2022-11-24T03:45:45.497Z,3.60
2022-11-24T03:48:14.415Z,3.33
2022-11-24T03:50:41.176Z,2.97
2022-11-24T03:53:10.991Z,3.03
2022-11-24T03:55:42.870Z,3.00
2022-11-24T03:58:10.727Z,3.50
2022-11-24T04:00:40.613Z,4.85
2022-11-24T04:03:10.327Z,3.47
2022-11-24T04:05:37.496Z,2.88
2022-11-24T04:08:05.399Z,2.90
2022-11-24T04:10:35.873Z,3.00
2022-11-24T04:15:30.320Z,3.08
2022-11-24T04:17:57.901Z,3.15
2022-11-24T04:20:24.728Z,3.10
2022-11-24T04:22:52.015Z,3.35
2022-11-24T04:25:19.017Z,3.08
2022-11-24T04:27:50.399Z,3.05
2022-11-24T04:30:17.442Z,3.15
2022-11-24T04:32:44.154Z,3.03
2022-11-24T04:35:11.284Z,2.92
2022-11-24T04:37:38.378Z,3.08
2022-11-24T04:40:06.682Z,3.03
2022-11-24T04:42:33.523Z,3.10
2022-11-24T04:45:00.585Z,4.90
2022-11-24T04:47:27.348Z,3.08
2022-11-24T04:49:54.831Z,2.83
2022-11-24T04:52:23.147Z,3.22
2022-11-24T04:54:50.136Z,3.42
2022-11-24T04:57:22.812Z,3.28
2022-11-24T04:59:50.414Z,3.10
2022-11-24T05:02:17.716Z,3.22
2022-11-24T05:04:46.060Z,2.75
2022-11-24T05:07:18.321Z,2.50
2022-11-24T05:10:04.973Z,2.65
2022-11-24T05:12:31.674Z,2.60
2022-11-24T05:14:59.396Z,2.67
2022-11-24T05:17:30.861Z,2.90
2022-11-24T05:19:58.042Z,3.08
2022-11-24T05:22:25.026Z,2.72
2022-11-24T05:24:51.725Z,2.50
2022-11-24T05:27:18.551Z,2.67
2022-11-24T05:29:45.493Z,2.40
2022-11-24T05:32:12.340Z,2.53
2022-11-24T05:34:39.074Z,2.20
2022-11-24T05:37:06.183Z,2.28
2022-11-24T05:39:36.462Z,2.40
2022-11-24T05:42:24.597Z,2.13
2022-11-24T05:44:51.944Z,2.53
2022-11-24T05:47:19.011Z,2.30
2022-11-24T05:49:45.751Z,2.17
2022-11-24T05:52:12.669Z,2.10
2022-11-24T05:54:39.386Z,2.55
2022-11-24T05:57:06.118Z,1.60
2022-11-24T05:59:32.820Z,1.60
2022-11-24T06:02:00.208Z,1.90
2022-11-24T06:04:26.976Z,2.17
2022-11-24T06:06:53.721Z,1.98
2022-11-24T06:09:20.537Z,1.60
2022-11-24T06:11:49.167Z,1.65
2022-11-24T06:14:15.986Z,1.70
2022-11-24T06:16:42.772Z,1.50
2022-11-24T06:19:12.359Z,1.77
2022-11-24T06:21:40.123Z,1.87
2022-11-24T06:24:07.366Z,1.90
2022-11-24T06:26:34.206Z,2.00
2022-11-24T06:29:01.325Z,2.28
2022-11-24T06:31:28.118Z,2.47
2022-11-24T06:33:54.903Z,2.95
2022-11-24T06:36:21.598Z,2.70
2022-11-24T06:38:48.295Z,3.65
2022-11-24T06:41:15.969Z,3.70
2022-11-24T06:43:42.829Z,3.42
2022-11-24T06:46:09.956Z,3.70
2022-11-24T06:48:37.276Z,3.75
2022-11-24T06:51:10.503Z,3.95
2022-11-24T06:53:39.644Z,4.03
2022-11-24T06:56:15.172Z,4.40
2022-11-24T06:58:44.545Z,4.80
2022-11-24T07:01:15.982Z,4.82
2022-11-24T07:03:42.776Z,4.70
2022-11-24T07:06:09.514Z,5.18
2022-11-24T07:08:36.249Z,4.93
2022-11-24T07:11:11.969Z,5.32
2022-11-24T07:13:40.131Z,5.28
2022-11-24T07:16:20.283Z,5.00
2022-11-24T07:18:48.361Z,4.78
2022-11-24T07:21:16.472Z,5.78
2022-11-24T07:23:43.524Z,5.53
2022-11-24T07:26:10.979Z,5.72
2022-11-24T07:28:40.660Z,5.30
2022-11-24T07:31:12.817Z,5.72
2022-11-24T07:33:39.863Z,5.65
2022-11-24T07:36:07.842Z,5.93
2022-11-24T07:38:35.605Z,5.40
2022-11-24T07:41:07.924Z,5.30
2022-11-24T07:43:36.651Z,5.68
2022-11-24T07:46:05.105Z,5.55
2022-11-24T07:48:32.191Z,5.38
2022-11-24T07:51:04.473Z,5.30
2022-11-24T07:53:32.071Z,5.28
2022-11-24T07:56:00.652Z,6.00
2022-11-24T07:58:33.369Z,5.38
2022-11-24T08:01:00.982Z,5.25
2022-11-24T08:03:28.012Z,5.40
2022-11-24T08:08:43.393Z,6.10
2022-11-24T08:11:13.394Z,5.72
2022-11-24T08:13:40.377Z,5.38
2022-11-24T08:16:09.606Z,5.60
2022-11-24T08:18:37.259Z,5.70
2022-11-24T08:21:05.044Z,5.82
2022-11-24T08:23:32.170Z,5.45
2022-11-24T08:26:04.918Z,5.72
2022-11-24T08:28:33.092Z,6.30
2022-11-24T08:31:08.335Z,6.05
2022-11-24T08:33:35.389Z,5.28
2022-11-24T08:36:11.313Z,5.72
2022-11-24T08:38:41.341Z,5.35
2022-11-24T08:41:11.385Z,6.68
2022-11-24T08:43:39.239Z,6.07
2022-11-24T08:46:12.281Z,5.10
2022-11-24T08:48:40.229Z,4.93
2022-11-24T08:51:09.540Z,4.60
2022-11-24T08:53:36.445Z,5.38
2022-11-24T08:56:04.733Z,4.03
2022-11-24T08:58:31.919Z,3.97
2022-11-24T09:01:05.859Z,4.38
2022-11-24T09:03:32.705Z,3.70
2022-11-24T09:05:59.439Z,4.40
2022-11-24T09:08:26.189Z,5.18
2022-11-24T09:10:52.921Z,3.50
2022-11-24T09:13:19.625Z,3.40
2022-11-24T09:15:46.277Z,3.47
2022-11-24T09:18:12.984Z,3.45
2022-11-24T09:20:39.728Z,3.90
2022-11-24T09:23:06.398Z,3.03
2022-11-24T09:25:33.227Z,3.20
2022-11-24T09:28:00.106Z,2.97
2022-11-24T09:30:27.235Z,3.55
2022-11-24T09:32:56.514Z,3.83
2022-11-24T09:35:24.499Z,3.17
2022-11-24T09:37:51.280Z,3.00
2022-11-24T09:40:18.728Z,3.83
2022-11-24T09:43:06.230Z,2.92
2022-11-24T09:46:11.687Z,3.13
2022-11-24T09:48:44.019Z,2.80
2022-11-24T09:51:13.481Z,3.25
2022-11-24T09:53:53.802Z,2.70
2022-11-24T09:56:27.277Z,3.55
2022-11-24T09:59:15.376Z,2.55
2022-11-24T10:01:43.666Z,3.00
2022-11-24T10:04:24.886Z,3.13
2022-11-24T10:07:22.840Z,2.90
2022-11-24T10:09:55.302Z,2.58
2022-11-24T10:12:58.300Z,3.13
2022-11-24T10:15:25.675Z,2.70
2022-11-24T10:18:05.200Z,3.15
2022-11-24T10:20:56.494Z,2.42
2022-11-24T10:23:46.069Z,3.00
2022-11-24T10:26:36.905Z,2.90
2022-11-24T10:29:12.954Z,2.78
2022-11-24T10:31:45.372Z,2.90
2022-11-24T10:34:23.093Z,2.88
2022-11-24T10:37:05.634Z,3.35
2022-11-24T10:39:50.547Z,3.72
2022-11-24T10:42:37.106Z,2.85
2022-11-24T10:45:14.292Z,3.15
2022-11-24T10:47:42.618Z,3.38
2022-11-24T10:50:20.499Z,2.90
2022-11-24T10:52:56.781Z,2.42
2022-11-24T10:55:23.559Z,3.58
2022-11-24T10:57:50.292Z,3.40
2022-11-24T11:00:19.742Z,2.70
2022-11-24T11:02:51.839Z,3.47
2022-11-24T11:05:28.146Z,3.35
2022-11-24T11:08:28.966Z,3.50
2022-11-24T11:11:20.254Z,3.55
2022-11-24T11:13:52.260Z,3.55
2022-11-24T11:16:41.933Z,3.65
2022-11-24T11:19:48.331Z,3.88
2022-11-24T11:22:30.020Z,4.05
2022-11-24T11:27:41.985Z,4.03
2022-11-24T11:36:16.477Z,4.13
2022-11-24T11:38:44.967Z,3.83
2022-11-24T11:41:20.534Z,3.50
2022-11-24T11:43:52.514Z,3.40
2022-11-24T11:46:20.695Z,3.67
2022-11-24T11:48:48.034Z,3.70
2022-11-24T11:51:38.691Z,3.40
2022-11-24T11:54:24.338Z,3.80
2022-11-24T11:57:01.198Z,3.13
2022-11-24T11:59:55.059Z,3.50
2022-11-24T12:02:33.079Z,3.38
2022-11-24T12:05:18.823Z,3.40
2022-11-24T12:08:01.275Z,3.40
2022-11-24T12:10:45.991Z,3.15
2022-11-24T12:13:36.805Z,4.00
2022-11-24T12:16:15.579Z,3.65
2022-11-24T12:18:57.552Z,3.30
2022-11-24T12:21:27.877Z,3.10
2022-11-24T12:24:06.042Z,3.53
2022-11-24T12:26:43.774Z,3.92
2022-11-24T12:29:43.808Z,3.45
2022-11-24T12:32:51.909Z,3.20
2022-11-24T12:35:29.272Z,3.78
2022-11-24T12:38:33.067Z,3.50
2022-11-24T12:41:43.969Z,3.25
2022-11-24T12:44:35.238Z,2.83
2022-11-24T12:47:32.112Z,3.80
2022-11-24T12:50:22.343Z,3.15
2022-11-24T12:52:58.793Z,3.38
2022-11-24T12:55:27.822Z,3.22
2022-11-24T12:58:14.443Z,3.03
2022-11-24T13:01:04.382Z,2.95
2022-11-24T13:03:55.164Z,3.80
2022-11-24T13:07:01.358Z,3.10
2022-11-24T13:09:28.105Z,3.33
2022-11-24T13:12:08.365Z,3.90
2022-11-24T13:14:38.893Z,3.50
2022-11-24T13:17:49.995Z,3.92
2022-11-24T13:20:19.162Z,3.20
2022-11-24T13:22:56.750Z,3.75
2022-11-24T13:25:28.943Z,4.18
2022-11-24T13:27:59.569Z,3.80
2022-11-24T13:30:35.636Z,3.47
2022-11-24T13:33:20.495Z,3.85
2022-11-24T13:36:04.085Z,3.53
2022-11-24T13:38:45.894Z,3.47
2022-11-24T13:41:33.029Z,3.25
2022-11-24T13:44:14.945Z,3.10
2022-11-24T13:47:06.387Z,3.33
2022-11-24T13:49:40.798Z,2.80
2022-11-24T13:52:46.068Z,3.53
2022-11-24T13:55:12.743Z,4.35
2022-11-24T13:57:52.968Z,2.90
2022-11-24T14:00:58.390Z,4.03
2022-11-24T14:03:30.015Z,3.53
2022-11-24T14:05:58.411Z,3.25
2022-11-24T14:08:33.653Z,4.75
2022-11-24T14:11:02.507Z,2.95
2022-11-24T14:13:33.180Z,2.78
2022-11-24T14:16:03.012Z,3.33
2022-11-24T14:18:31.351Z,2.75
2022-11-24T14:20:59.799Z,3.40
2022-11-24T14:23:26.797Z,2.50
2022-11-24T14:25:53.916Z,2.45
2022-11-24T14:28:27.039Z,2.47
2022-11-24T14:31:08.468Z,3.63
2022-11-24T14:33:35.936Z,2.72
2022-11-24T14:36:02.764Z,2.75
2022-11-24T14:38:29.580Z,2.58
2022-11-24T14:40:56.602Z,2.78
2022-11-24T14:43:30.337Z,3.28
2022-11-24T14:46:09.411Z,3.13
2022-11-24T14:48:38.713Z,2.88
2022-11-24T14:51:21.373Z,2.80
2022-11-24T14:53:52.374Z,2.72
2022-11-24T14:56:30.321Z,2.85
2022-11-24T14:58:58.067Z,2.85
2022-11-24T15:01:27.662Z,3.40
2022-11-24T15:04:54.363Z,2.65
2022-11-24T15:07:25.404Z,2.50
2022-11-24T15:10:00.700Z,2.80
2022-11-24T15:12:34.277Z,2.47
2022-11-24T15:15:16.036Z,3.15
2022-11-24T15:17:57.230Z,2.40
2022-11-24T15:20:32.033Z,3.13
2022-11-24T15:23:27.496Z,2.22
2022-11-24T15:26:03.797Z,3.25
2022-11-24T15:28:31.541Z,2.72
2022-11-24T15:31:16.381Z,2.60
2022-11-24T15:33:44.305Z,3.13
2022-11-24T15:36:13.984Z,2.95
2022-11-24T15:38:40.706Z,2.35
2022-11-24T15:41:18.234Z,2.63
2022-11-24T15:43:45.384Z,2.90
2022-11-24T15:46:12.245Z,2.53
2022-11-24T15:48:39.030Z,2.70
2022-11-24T15:51:11.248Z,2.53
2022-11-24T15:53:40.811Z,2.50
2022-11-24T15:56:34.158Z,3.15
2022-11-24T15:59:02.806Z,2.63
2022-11-24T16:01:33.883Z,3.97
2022-11-24T16:04:01.952Z,2.90
2022-11-24T16:06:28.802Z,2.83
2022-11-24T16:08:58.063Z,2.70
2022-11-24T16:11:24.854Z,3.03
2022-11-24T16:13:53.953Z,3.08
2022-11-24T16:16:22.584Z,3.20
2022-11-24T16:18:49.381Z,4.30
2022-11-24T16:21:16.104Z,4.25
2022-11-24T16:23:42.834Z,3.83
2022-11-24T16:26:10.723Z,6.60
2022-11-24T16:28:37.470Z,4.70
2022-11-24T16:31:04.364Z,4.55
2022-11-24T16:33:32.690Z,5.22
2022-11-24T16:35:59.614Z,4.38
2022-11-24T16:38:26.339Z,4.50
2022-11-24T16:40:54.387Z,3.70
2022-11-24T16:43:21.105Z,3.75
2022-11-24T16:46:20.418Z,3.33
2022-11-24T16:48:49.440Z,3.40
2022-11-24T16:51:17.072Z,3.28
2022-11-24T16:53:44.210Z,3.17
2022-11-24T16:56:10.958Z,3.25
2022-11-24T16:58:39.254Z,3.22
2022-11-24T17:01:07.908Z,5.03
2022-11-24T17:03:37.397Z,4.20
2022-11-24T17:06:06.369Z,4.40
2022-11-24T17:08:37.736Z,3.58
2022-11-24T17:11:22.602Z,4.07
2022-11-24T17:13:49.611Z,5.93
2022-11-24T17:16:19.213Z,8.50
2022-11-24T17:18:46.163Z,3.55
2022-11-24T17:21:23.696Z,3.58
2022-11-24T17:23:55.400Z,3.70
2022-11-24T17:26:22.171Z,3.92
2022-11-24T17:28:48.953Z,3.60
2022-11-24T17:31:19.763Z,3.85
2022-11-24T17:33:46.490Z,3.65
2022-11-24T17:36:13.269Z,3.35
2022-11-24T17:38:39.989Z,3.65
2022-11-24T17:41:08.876Z,3.58
2022-11-24T17:43:35.734Z,3.42
2022-11-24T17:46:04.195Z,3.33
2022-11-24T17:48:31.908Z,4.65
2022-11-24T17:51:00.259Z,4.70
2022-11-24T17:53:27.530Z,4.35
2022-11-24T17:55:54.427Z,3.40
2022-11-24T17:58:21.125Z,3.53
2022-11-24T18:00:51.553Z,3.92
2022-11-24T18:03:18.274Z,3.50
2022-11-24T18:05:45.015Z,3.75
2022-11-24T18:08:14.445Z,3.30
2022-11-24T18:10:42.793Z,3.25
2022-11-24T18:13:27.725Z,3.38
2022-11-24T18:16:04.261Z,3.42
2022-11-24T18:18:33.550Z,3.58
2022-11-24T18:21:03.562Z,3.03
2022-11-24T18:23:31.586Z,3.40
2022-11-24T18:26:00.393Z,3.80
2022-11-24T18:28:27.322Z,4.78
2022-11-24T18:31:00.373Z,3.72
2022-11-24T18:33:27.175Z,4.07
2022-11-24T18:36:02.037Z,4.03
2022-11-24T18:38:29.193Z,4.25
2022-11-24T18:40:58.371Z,4.28
2022-11-24T18:43:26.706Z,4.07
2022-11-24T18:45:54.060Z,3.60
2022-11-24T18:48:22.640Z,4.25
2022-11-24T18:50:57.136Z,3.85
2022-11-24T18:53:25.680Z,3.30
2022-11-24T18:56:03.890Z,2.88
2022-11-24T18:58:31.975Z,3.10
2022-11-24T19:01:21.051Z,3.22
2022-11-24T19:03:50.522Z,4.93
2022-11-24T19:06:22.998Z,3.30
2022-11-24T19:08:53.496Z,3.47
2022-11-24T19:11:28.622Z,3.38
2022-11-24T19:13:56.630Z,3.28
2022-11-24T19:16:24.419Z,2.95
2022-11-24T19:18:54.322Z,2.83
2022-11-24T19:21:21.792Z,3.72
2022-11-24T19:23:49.128Z,3.67
2022-11-24T19:26:16.247Z,3.30
2022-11-24T19:28:44.235Z,3.33
2022-11-24T19:31:13.312Z,2.83
2022-11-24T19:33:40.324Z,3.25
2022-11-24T19:36:11.098Z,3.20
2022-11-24T19:38:38.204Z,3.38
2022-11-24T19:41:07.237Z,3.10
2022-11-24T19:43:34.694Z,3.35
2022-11-24T19:46:03.018Z,2.85
2022-11-24T19:48:33.837Z,3.10
2022-11-24T19:51:05.832Z,2.78
2022-11-24T19:53:33.644Z,3.10
2022-11-24T19:56:08.649Z,3.47
2022-11-24T19:58:36.488Z,3.05
2022-11-24T20:01:15.097Z,3.42
2022-11-24T20:03:43.254Z,3.40
2022-11-24T20:06:12.331Z,3.38
2022-11-24T20:08:40.192Z,4.32
2022-11-24T20:11:12.947Z,3.22
2022-11-24T20:13:41.637Z,3.40
2022-11-24T20:16:14.350Z,3.95
2022-11-24T20:18:43.972Z,3.28
2022-11-24T20:21:22.432Z,3.70
2022-11-24T20:24:06.591Z,3.00
2022-11-24T20:26:36.094Z,3.92
2022-11-24T20:29:04.640Z,3.53
2022-11-24T20:31:34.491Z,3.20
2022-11-24T20:34:03.733Z,3.75
2022-11-24T20:36:32.698Z,2.80
2022-11-24T20:39:01.523Z,2.78
2022-11-24T20:41:30.776Z,3.75
2022-11-24T20:44:00.358Z,4.03
2022-11-24T20:46:30.149Z,2.60
2022-11-24T20:48:57.596Z,3.58
2022-11-24T20:51:29.747Z,3.00
2022-11-24T20:53:58.961Z,3.10
2022-11-24T20:56:28.804Z,3.88
2022-11-24T20:58:56.359Z,3.38
2022-11-24T21:01:34.675Z,2.97
2022-11-24T21:04:02.623Z,3.55
2022-11-24T21:06:29.712Z,3.92
2022-11-24T21:09:02.015Z,3.13
2022-11-24T21:11:30.896Z,3.58
2022-11-24T21:13:58.012Z,3.40
2022-11-24T21:16:35.873Z,3.13
2022-11-24T21:19:09.989Z,3.42
2022-11-24T21:21:37.840Z,3.15
2022-11-24T21:24:07.257Z,3.03
2022-11-24T21:26:38.709Z,3.25
2022-11-24T21:29:06.792Z,3.10
2022-11-24T21:31:38.393Z,3.83
2022-11-24T21:34:06.477Z,2.90
2022-11-24T21:36:35.040Z,2.95
2022-11-24T21:39:03.031Z,3.20
2022-11-24T21:41:32.686Z,3.22
2022-11-24T21:43:59.624Z,3.07
2022-11-24T21:46:28.016Z,3.10
2022-11-24T21:48:54.758Z,3.05
2022-11-24T21:51:21.446Z,2.95
2022-11-24T21:53:48.545Z,3.20
2022-11-24T21:56:20.403Z,3.22
2022-11-24T21:58:49.568Z,3.35
2022-11-24T22:01:18.457Z,3.33
2022-11-24T22:03:45.947Z,2.97
2022-11-24T22:06:13.105Z,3.38
2022-11-24T22:08:39.884Z,2.90
2022-11-24T22:11:18.071Z,2.97
2022-11-24T22:13:48.529Z,3.05
2022-11-24T22:18:44.723Z,3.17
2022-11-24T22:21:14.435Z,3.13
2022-11-24T22:23:41.474Z,3.13
2022-11-24T22:26:12.691Z,2.95
2022-11-24T22:28:39.789Z,3.30
2022-11-24T22:31:18.288Z,3.63
2022-11-24T22:33:45.330Z,4.38
2022-11-24T22:36:13.224Z,3.38
2022-11-24T22:38:40.646Z,3.47
2022-11-24T22:41:13.141Z,3.58
2022-11-24T22:43:42.174Z,4.25
2022-11-24T22:46:15.094Z,3.22
2022-11-24T22:48:42.505Z,3.70
2022-11-24T22:51:11.846Z,2.97
2022-11-24T22:53:39.012Z,3.13
2022-11-24T22:56:09.425Z,3.00
2022-11-24T23:01:12.627Z,2.97
2022-11-24T23:03:40.067Z,2.97
2022-11-24T23:06:18.010Z,2.90
2022-11-24T23:08:44.896Z,3.28
2022-11-24T23:11:17.592Z,3.05
2022-11-24T23:13:44.645Z,3.30
2022-11-24T23:16:14.312Z,3.33
2022-11-24T23:18:41.772Z,3.13
2022-11-24T23:21:16.222Z,3.10
2022-11-24T23:23:44.059Z,3.15
2022-11-24T23:26:13.109Z,3.13
2022-11-24T23:28:40.394Z,3.30
2022-11-24T23:31:16.264Z,3.10
2022-11-24T23:33:43.681Z,3.28
2022-11-24T23:36:15.279Z,3.40
2022-11-24T23:38:43.347Z,3.40
2022-11-24T23:41:15.635Z,3.10
2022-11-24T23:43:43.057Z,3.40
2022-11-24T23:46:15.825Z,2.85
2022-11-24T23:48:43.075Z,3.00
2022-11-24T23:51:15.537Z,3.38
2022-11-24T23:53:43.302Z,3.20
2022-11-24T23:56:15.472Z,3.00
2022-11-24T23:58:42.736Z,2.72
